createdAt,value
2017-10-19T00:00:41.511Z,9.10
2017-10-19T00:03:09.020Z,9.10
2017-10-19T00:05:39.742Z,9.10
2017-10-19T00:08:07.251Z,9.10
2017-10-19T00:10:34.774Z,9.00
2017-10-19T00:13:02.260Z,8.90
2017-10-19T00:15:29.745Z,8.90
2017-10-19T00:17:57.246Z,8.80
2017-10-19T00:20:24.725Z,8.80
2017-10-19T00:22:52.218Z,8.70
2017-10-19T00:25:19.732Z,8.60
2017-10-19T00:27:47.222Z,8.60
2017-10-19T00:30:14.714Z,8.50
2017-10-19T00:32:42.225Z,8.50
2017-10-19T00:35:09.710Z,8.50
2017-10-19T00:37:37.257Z,8.50
2017-10-19T00:40:04.760Z,8.60
2017-10-19T00:42:32.254Z,8.70
2017-10-19T00:44:59.765Z,8.70
2017-10-19T00:47:27.269Z,8.70
2017-10-19T00:49:54.758Z,8.60
2017-10-19T00:52:22.266Z,8.70
2017-10-19T00:54:49.766Z,8.60
2017-10-19T00:57:17.250Z,8.50
2017-10-19T00:59:45.531Z,8.40
2017-10-19T01:02:13.786Z,8.40
2017-10-19T01:04:41.281Z,8.30
2017-10-19T01:07:09.570Z,8.30
2017-10-19T01:09:37.110Z,8.30
2017-10-19T01:12:04.645Z,8.30
2017-10-19T01:14:32.165Z,8.30
2017-10-19T01:16:59.649Z,8.30
2017-10-19T01:19:27.148Z,8.30
2017-10-19T01:21:55.559Z,8.20
2017-10-19T01:24:23.041Z,8.30
2017-10-19T01:26:50.534Z,8.30
2017-10-19T01:29:18.818Z,8.30
2017-10-19T01:31:47.065Z,8.40
2017-10-19T01:34:14.570Z,8.40
2017-10-19T01:36:42.088Z,8.40
2017-10-19T01:39:09.593Z,8.40
2017-10-19T01:41:37.860Z,8.40
2017-10-19T01:44:06.143Z,8.40
2017-10-19T01:46:33.666Z,8.40
2017-10-19T01:49:01.162Z,8.40
2017-10-19T01:51:29.442Z,8.40
2017-10-19T01:53:58.036Z,8.30
2017-10-19T01:56:25.551Z,8.30
2017-10-19T01:58:53.055Z,8.20
2017-10-19T02:01:20.595Z,8.20
2017-10-19T02:03:48.113Z,8.20
2017-10-19T02:06:15.623Z,8.10
2017-10-19T02:08:43.893Z,8.00
2017-10-19T02:11:12.151Z,8.10
2017-10-19T02:13:39.666Z,8.00
2017-10-19T02:16:07.174Z,8.10
2017-10-19T02:18:34.667Z,8.10
2017-10-19T02:21:02.180Z,8.10
2017-10-19T02:23:29.697Z,8.10
2017-10-19T02:25:57.210Z,8.20
2017-10-19T02:28:24.698Z,8.20
2017-10-19T02:30:52.206Z,8.20
2017-10-19T02:33:19.702Z,8.10
2017-10-19T02:35:47.951Z,7.90
2017-10-19T02:38:15.460Z,7.90
2017-10-19T02:40:42.942Z,7.80
2017-10-19T02:43:10.428Z,7.80
2017-10-19T02:45:37.930Z,7.70
2017-10-19T02:48:05.674Z,7.80
2017-10-19T02:50:33.164Z,7.70
2017-10-19T02:53:00.679Z,7.60
2017-10-19T02:55:28.181Z,7.60
2017-10-19T02:57:55.715Z,7.60
2017-10-19T03:00:23.298Z,7.60
2017-10-19T03:02:50.788Z,7.60
2017-10-19T03:05:18.276Z,7.50
2017-10-19T03:07:45.783Z,7.60
2017-10-19T03:10:13.282Z,7.60
2017-10-19T03:12:40.801Z,7.50
2017-10-19T03:15:08.285Z,7.40
2017-10-19T03:17:35.774Z,7.40
2017-10-19T03:20:03.282Z,7.40
2017-10-19T03:22:30.770Z,7.30
2017-10-19T03:24:58.259Z,7.30
2017-10-19T03:27:26.529Z,7.20
2017-10-19T03:29:54.029Z,7.20
2017-10-19T03:32:21.540Z,7.20
2017-10-19T03:34:49.062Z,7.20
2017-10-19T03:37:16.549Z,7.30
2017-10-19T03:39:44.053Z,7.30
2017-10-19T03:42:11.562Z,7.30
2017-10-19T03:44:39.050Z,7.30
2017-10-19T03:47:06.541Z,7.30
2017-10-19T03:49:34.052Z,7.30
2017-10-19T03:52:01.541Z,7.20
2017-10-19T03:54:29.031Z,7.20
2017-10-19T03:56:56.543Z,7.10
2017-10-19T03:59:24.038Z,7.10
2017-10-19T04:01:51.525Z,7.10
2017-10-19T04:04:19.034Z,7.10
2017-10-19T04:06:47.286Z,7.10
2017-10-19T04:09:14.787Z,7.10
2017-10-19T04:11:42.270Z,7.10
2017-10-19T04:14:09.791Z,7.10
2017-10-19T04:16:37.274Z,7.10
2017-10-19T04:19:04.757Z,7.00
2017-10-19T04:21:32.266Z,6.90
2017-10-19T04:24:00.522Z,6.90
2017-10-19T04:26:28.773Z,6.80
2017-10-19T04:28:56.289Z,6.80
2017-10-19T04:31:23.776Z,6.80
2017-10-19T04:33:51.289Z,6.80
2017-10-19T04:36:19.542Z,6.90
2017-10-19T04:38:47.062Z,6.90
2017-10-19T04:41:14.546Z,7.00
2017-10-19T04:43:42.043Z,7.00
2017-10-19T04:46:09.551Z,6.90
2017-10-19T04:48:37.046Z,6.90
2017-10-19T04:51:04.530Z,6.80
2017-10-19T04:53:32.041Z,6.80
2017-10-19T04:55:59.530Z,6.80
2017-10-19T04:58:29.865Z,6.80
2017-10-19T05:00:57.455Z,6.70
2017-10-19T05:03:25.011Z,6.70
2017-10-19T05:05:52.630Z,6.70
2017-10-19T05:08:20.934Z,6.70
2017-10-19T05:10:48.422Z,6.60
2017-10-19T05:13:15.914Z,6.70
2017-10-19T05:15:43.483Z,6.70
2017-10-19T05:18:11.758Z,6.60
2017-10-19T05:20:39.264Z,6.60
2017-10-19T05:23:07.627Z,6.60
2017-10-19T05:25:35.139Z,6.50
2017-10-19T05:28:02.655Z,6.50
2017-10-19T05:30:30.171Z,6.50
2017-10-19T05:32:57.676Z,6.50
2017-10-19T05:35:25.182Z,6.60
2017-10-19T05:37:52.700Z,6.50
2017-10-19T05:40:20.226Z,6.50
2017-10-19T05:42:48.507Z,6.50
2017-10-19T05:45:16.783Z,6.50
2017-10-19T05:47:45.047Z,6.50
2017-10-19T05:50:12.563Z,6.50
2017-10-19T05:52:40.071Z,6.50
2017-10-19T05:55:08.326Z,6.50
2017-10-19T05:57:35.810Z,6.50
2017-10-19T06:00:04.101Z,6.50
2017-10-19T06:02:32.358Z,6.50
2017-10-19T06:05:00.612Z,6.50
2017-10-19T06:07:28.128Z,6.50
2017-10-19T06:09:55.631Z,6.50
2017-10-19T06:12:23.131Z,6.50
2017-10-19T06:14:50.678Z,6.50
2017-10-19T06:17:30.679Z,6.60
2017-10-19T06:19:58.215Z,6.60
2017-10-19T06:22:25.724Z,6.70
2017-10-19T06:24:53.985Z,6.90
2017-10-19T06:27:21.493Z,6.90
2017-10-19T06:29:49.746Z,7.10
2017-10-19T06:32:17.237Z,7.10
2017-10-19T06:34:44.754Z,7.20
2017-10-19T06:37:12.246Z,7.30
2017-10-19T06:39:40.498Z,7.50
2017-10-19T06:42:08.015Z,7.50
2017-10-19T06:44:35.505Z,7.70
2017-10-19T06:47:02.999Z,7.80
2017-10-19T06:49:31.286Z,8.10
2017-10-19T06:51:58.774Z,8.10
2017-10-19T06:54:26.263Z,8.20
2017-10-19T06:56:53.791Z,8.40
2017-10-19T06:59:21.288Z,8.50
2017-10-19T07:01:48.778Z,8.50
2017-10-19T07:04:16.296Z,8.70
2017-10-19T07:06:43.791Z,8.80
2017-10-19T07:09:12.044Z,9.00
2017-10-19T07:11:39.553Z,9.00
2017-10-19T07:14:07.052Z,9.10
2017-10-19T07:16:34.547Z,9.20
2017-10-19T07:19:02.071Z,9.20
2017-10-19T07:21:29.575Z,9.30
2017-10-19T07:23:57.064Z,9.40
2017-10-19T07:26:24.568Z,9.40
2017-10-19T07:28:52.122Z,9.50
2017-10-19T07:31:19.615Z,9.60
2017-10-19T07:33:47.102Z,9.80
2017-10-19T07:36:14.634Z,10.00
2017-10-19T07:38:42.124Z,10.20
2017-10-19T07:41:09.618Z,10.50
2017-10-19T07:43:37.144Z,10.80
2017-10-19T07:46:04.628Z,11.10
2017-10-19T07:48:32.126Z,11.30
2017-10-19T07:50:59.651Z,11.70
2017-10-19T07:53:27.185Z,11.90
2017-10-19T07:55:54.679Z,12.20
2017-10-19T07:58:22.957Z,12.70
2017-10-19T08:00:51.218Z,13.00
2017-10-19T08:03:18.728Z,13.00
2017-10-19T08:05:46.250Z,13.10
2017-10-19T08:08:14.510Z,13.70
2017-10-19T08:10:42.003Z,13.60
2017-10-19T08:13:10.291Z,14.00
2017-10-19T08:15:37.782Z,13.90
2017-10-19T08:18:05.278Z,14.00
2017-10-19T08:20:32.798Z,14.10
2017-10-19T08:23:00.307Z,14.30
2017-10-19T08:25:27.802Z,14.60
2017-10-19T08:27:55.299Z,14.70
2017-10-19T08:30:22.810Z,14.90
2017-10-19T08:32:50.308Z,15.10
2017-10-19T08:35:17.802Z,15.10
2017-10-19T08:37:45.322Z,15.20
2017-10-19T08:40:12.818Z,15.40
2017-10-19T08:42:41.102Z,15.70
2017-10-19T08:45:09.373Z,15.70
2017-10-19T08:47:37.639Z,15.90
2017-10-19T08:50:05.136Z,15.90
2017-10-19T08:52:32.653Z,16.00
2017-10-19T08:55:00.147Z,16.00
2017-10-19T08:57:27.660Z,16.10
2017-10-19T08:59:55.200Z,16.10
2017-10-19T09:02:22.707Z,16.20
2017-10-19T09:04:50.231Z,16.30
2017-10-19T09:07:17.728Z,16.40
2017-10-19T09:09:45.991Z,16.40
2017-10-19T09:12:13.503Z,16.40
2017-10-19T09:14:41.002Z,16.30
2017-10-19T09:17:08.490Z,16.40
2017-10-19T09:19:36.007Z,16.40
2017-10-19T09:22:03.503Z,16.40
2017-10-19T09:24:31.029Z,16.40
2017-10-19T09:26:58.530Z,16.50
2017-10-19T09:29:26.043Z,16.40
2017-10-19T09:31:53.563Z,16.50
2017-10-19T09:34:21.058Z,16.40
2017-10-19T09:36:48.575Z,16.40
2017-10-19T09:39:16.095Z,16.40
2017-10-19T09:41:43.586Z,16.30
2017-10-19T09:44:11.107Z,16.30
2017-10-19T09:46:38.599Z,16.30
2017-10-19T09:49:06.866Z,16.30
2017-10-19T09:51:34.386Z,16.30
2017-10-19T09:54:01.880Z,16.40
2017-10-19T09:56:30.137Z,16.50
2017-10-19T09:58:57.664Z,16.50
2017-10-19T10:01:25.191Z,16.50
2017-10-19T10:03:52.687Z,16.60
2017-10-19T10:06:20.187Z,16.70
2017-10-19T10:08:47.707Z,16.80
2017-10-19T10:11:15.213Z,16.90
2017-10-19T10:13:43.472Z,17.00
2017-10-19T10:16:10.998Z,17.10
2017-10-19T10:18:38.507Z,17.10
2017-10-19T10:21:06.791Z,17.30
2017-10-19T10:23:34.306Z,17.30
2017-10-19T10:26:01.801Z,17.50
2017-10-19T10:28:30.092Z,17.60
2017-10-19T10:30:57.594Z,17.60
2017-10-19T10:33:25.086Z,17.60
2017-10-19T10:35:52.582Z,17.80
2017-10-19T10:38:20.090Z,17.80
2017-10-19T10:40:47.594Z,17.90
2017-10-19T10:43:15.111Z,18.00
2017-10-19T10:45:42.611Z,18.10
2017-10-19T10:48:10.110Z,18.10
2017-10-19T10:50:37.641Z,18.30
2017-10-19T10:53:05.142Z,18.50
2017-10-19T10:55:43.443Z,18.60
2017-10-19T10:58:10.954Z,18.70
2017-10-19T11:00:38.451Z,18.80
2017-10-19T11:03:05.948Z,19.00
2017-10-19T11:05:33.469Z,19.10
2017-10-19T11:08:00.966Z,18.90
2017-10-19T11:10:28.466Z,18.90
2017-10-19T11:12:56.035Z,19.00
2017-10-19T11:15:23.527Z,19.20
2017-10-19T11:17:51.026Z,19.40
2017-10-19T11:20:18.548Z,19.40
2017-10-19T11:22:46.042Z,19.50
2017-10-19T11:25:14.307Z,19.40
2017-10-19T11:27:42.604Z,19.50
2017-10-19T11:30:10.107Z,19.40
2017-10-19T11:32:37.602Z,19.40
2017-10-19T11:35:05.883Z,19.60
2017-10-19T11:37:34.142Z,19.70
2017-10-19T11:40:01.634Z,19.70
2017-10-19T11:42:29.154Z,19.80
2017-10-19T11:44:56.649Z,19.80
2017-10-19T11:47:24.911Z,19.50
2017-10-19T11:49:52.429Z,19.50
2017-10-19T11:52:19.938Z,19.40
2017-10-19T11:54:48.192Z,19.50
2017-10-19T11:57:15.699Z,19.50
2017-10-19T11:59:43.210Z,19.60
2017-10-19T12:02:10.711Z,19.60
2017-10-19T12:04:38.233Z,19.40
2017-10-19T12:07:05.719Z,19.40
2017-10-19T12:09:33.210Z,19.80
2017-10-19T12:12:00.722Z,19.90
2017-10-19T12:14:28.979Z,19.80
2017-10-19T12:16:56.474Z,19.80
2017-10-19T12:19:23.983Z,19.80
2017-10-19T12:21:51.475Z,19.90
2017-10-19T12:24:19.726Z,19.90
2017-10-19T12:26:47.263Z,19.90
2017-10-19T12:29:14.759Z,19.90
2017-10-19T12:31:42.293Z,19.90
2017-10-19T12:34:09.798Z,20.00
2017-10-19T12:36:38.075Z,20.50
2017-10-19T12:39:06.326Z,20.80
2017-10-19T12:41:33.818Z,20.80
2017-10-19T12:44:01.339Z,20.90
2017-10-19T12:46:28.830Z,21.00
2017-10-19T12:48:56.324Z,20.90
2017-10-19T12:51:23.830Z,20.90
2017-10-19T12:53:51.318Z,20.90
2017-10-19T12:56:18.831Z,20.80
2017-10-19T12:58:46.348Z,20.80
2017-10-19T13:01:13.838Z,20.90
2017-10-19T13:03:41.343Z,21.00
2017-10-19T13:06:08.863Z,21.20
2017-10-19T13:08:36.351Z,21.20
2017-10-19T13:11:04.615Z,21.10
2017-10-19T13:13:32.131Z,21.10
2017-10-19T13:15:59.624Z,20.90
2017-10-19T13:18:27.113Z,20.80
2017-10-19T13:20:55.393Z,20.50
2017-10-19T13:23:22.907Z,20.50
2017-10-19T13:25:50.395Z,20.50
2017-10-19T13:28:18.650Z,20.40
2017-10-19T13:30:46.164Z,20.40
2017-10-19T13:33:13.659Z,20.40
2017-10-19T13:35:41.919Z,20.30
2017-10-19T13:38:09.442Z,20.30
2017-10-19T13:40:37.707Z,20.30
2017-10-19T13:43:05.967Z,20.20
2017-10-19T13:45:33.476Z,20.20
2017-10-19T13:48:01.754Z,20.30
2017-10-19T13:50:29.267Z,20.30
2017-10-19T13:52:56.751Z,20.70
2017-10-19T13:55:24.604Z,20.70
2017-10-19T13:57:52.890Z,20.50
2017-10-19T14:00:21.150Z,20.50
2017-10-19T14:02:48.678Z,20.50
2017-10-19T14:05:16.199Z,20.50
2017-10-19T14:07:43.690Z,20.50
2017-10-19T14:10:11.182Z,20.50
2017-10-19T14:12:38.702Z,20.70
2017-10-19T14:15:06.190Z,20.90
2017-10-19T14:17:33.678Z,20.60
2017-10-19T14:20:01.952Z,21.00
2017-10-19T14:22:29.433Z,20.90
2017-10-19T14:24:56.921Z,20.90
2017-10-19T14:27:24.426Z,20.90
2017-10-19T14:29:52.714Z,20.60
2017-10-19T14:32:20.978Z,20.50
2017-10-19T14:34:49.251Z,20.50
2017-10-19T14:37:17.553Z,20.40
2017-10-19T14:39:45.061Z,20.40
2017-10-19T14:42:12.583Z,20.50
2017-10-19T14:44:40.083Z,20.40
2017-10-19T14:47:07.597Z,20.50
2017-10-19T14:49:35.100Z,20.50
2017-10-19T14:52:02.595Z,20.30
2017-10-19T14:54:30.886Z,20.10
2017-10-19T14:56:58.416Z,20.10
2017-10-19T14:59:25.904Z,20.00
2017-10-19T15:01:53.419Z,20.00
2017-10-19T15:04:20.922Z,20.00
2017-10-19T15:06:48.425Z,19.90
2017-10-19T15:09:15.944Z,19.80
2017-10-19T15:11:43.430Z,19.80
2017-10-19T15:14:10.927Z,19.80
2017-10-19T15:16:38.450Z,19.70
2017-10-19T15:19:05.942Z,19.60
2017-10-19T15:21:33.459Z,19.50
2017-10-19T15:24:00.984Z,19.40
2017-10-19T15:26:28.470Z,19.40
2017-10-19T15:28:55.963Z,19.30
2017-10-19T15:31:23.480Z,19.20
2017-10-19T15:33:50.969Z,19.10
2017-10-19T15:36:18.462Z,19.10
2017-10-19T15:38:46.747Z,19.10
2017-10-19T15:41:15.002Z,19.00
2017-10-19T15:43:42.490Z,19.00
2017-10-19T15:46:10.776Z,18.70
2017-10-19T15:48:38.264Z,18.70
2017-10-19T15:51:13.645Z,18.60
2017-10-19T15:53:41.142Z,18.50
2017-10-19T15:56:08.638Z,18.30
2017-10-19T15:58:36.159Z,18.30
2017-10-19T16:01:03.653Z,18.10
2017-10-19T16:03:31.147Z,18.10
2017-10-19T16:05:58.658Z,18.00
2017-10-19T16:08:26.150Z,17.90
2017-10-19T16:10:53.653Z,17.80
2017-10-19T16:13:21.171Z,17.80
2017-10-19T16:15:48.666Z,17.70
2017-10-19T16:18:16.162Z,17.70
2017-10-19T16:20:43.676Z,17.60
2017-10-19T16:23:11.947Z,17.40
2017-10-19T16:25:39.448Z,17.40
2017-10-19T16:28:09.733Z,17.30
2017-10-19T16:30:38.231Z,17.20
2017-10-19T16:33:05.726Z,17.20
2017-10-19T16:35:34.400Z,17.20
2017-10-19T16:38:01.935Z,17.20
2017-10-19T16:40:30.191Z,17.00
2017-10-19T16:42:58.456Z,17.00
2017-10-19T16:45:25.981Z,17.00
2017-10-19T16:47:53.586Z,16.90
2017-10-19T16:50:21.856Z,16.80
2017-10-19T16:52:49.427Z,16.80
2017-10-19T16:55:17.770Z,16.70
2017-10-19T16:57:45.278Z,16.70
2017-10-19T17:00:12.795Z,16.70
2017-10-19T17:02:40.298Z,16.60
2017-10-19T17:05:08.599Z,16.40
2017-10-19T17:07:36.102Z,16.30
2017-10-19T17:10:03.672Z,16.30
2017-10-19T17:12:31.212Z,16.20
2017-10-19T17:14:58.751Z,16.20
2017-10-19T17:17:26.267Z,16.20
2017-10-19T17:19:53.927Z,16.20
2017-10-19T17:22:22.264Z,16.10
2017-10-19T17:24:50.191Z,16.10
2017-10-19T17:27:17.709Z,16.00
2017-10-19T17:29:45.202Z,15.90
2017-10-19T17:32:13.465Z,15.70
2017-10-19T17:34:40.994Z,15.70
2017-10-19T17:37:08.685Z,15.60
2017-10-19T17:39:36.405Z,15.60
2017-10-19T17:42:03.951Z,15.60
2017-10-19T17:44:31.451Z,15.40
2017-10-19T17:46:58.946Z,15.40
2017-10-19T17:49:27.229Z,15.20
2017-10-19T17:51:54.724Z,15.20
2017-10-19T17:54:22.220Z,15.20
2017-10-19T17:56:49.738Z,15.10
2017-10-19T17:59:17.231Z,15.00
2017-10-19T18:01:44.740Z,14.90
2017-10-19T18:04:12.266Z,14.80
2017-10-19T18:06:40.689Z,14.80
2017-10-19T18:09:08.203Z,14.80
2017-10-19T18:11:36.498Z,14.70
2017-10-19T18:14:04.000Z,14.70
2017-10-19T18:16:32.257Z,14.50
2017-10-19T18:18:59.782Z,14.50
2017-10-19T18:21:27.292Z,14.50
2017-10-19T18:23:54.894Z,14.50
2017-10-19T18:26:22.438Z,14.50
2017-10-19T18:28:49.938Z,14.50
2017-10-19T18:31:17.507Z,14.40
2017-10-19T18:33:45.258Z,14.50
2017-10-19T18:36:13.042Z,14.50
2017-10-19T18:38:40.660Z,14.40
2017-10-19T18:41:08.340Z,14.40
2017-10-19T18:43:36.047Z,14.30
2017-10-19T18:46:03.587Z,14.20
2017-10-19T18:48:31.309Z,14.10
2017-10-19T18:50:59.959Z,14.00
2017-10-19T18:53:27.633Z,14.00
2017-10-19T18:55:55.310Z,14.00
2017-10-19T18:58:22.881Z,14.00
2017-10-19T19:00:51.371Z,13.80
2017-10-19T19:03:19.042Z,13.80
2017-10-19T19:05:46.934Z,13.80
2017-10-19T19:08:14.620Z,13.80
2017-10-19T19:10:42.341Z,13.70
2017-10-19T19:13:10.216Z,13.70
2017-10-19T19:15:37.963Z,13.70
2017-10-19T19:18:05.654Z,13.70
2017-10-19T19:20:33.475Z,13.70
2017-10-19T19:23:01.307Z,13.60
2017-10-19T19:25:28.935Z,13.60
2017-10-19T19:27:56.631Z,13.50
2017-10-19T19:30:24.444Z,13.50
2017-10-19T19:32:51.981Z,13.50
2017-10-19T19:35:20.396Z,13.40
2017-10-19T19:37:48.017Z,13.40
2017-10-19T19:40:15.575Z,13.30
2017-10-19T19:42:43.116Z,13.30
2017-10-19T19:45:10.838Z,13.20
2017-10-19T19:47:39.196Z,13.20
2017-10-19T19:50:07.692Z,13.10
2017-10-19T19:52:36.040Z,13.10
2017-10-19T19:55:03.679Z,13.10
2017-10-19T19:57:31.885Z,13.00
2017-10-19T19:59:59.413Z,13.00
2017-10-19T20:02:28.645Z,12.90
2017-10-19T20:04:56.292Z,12.90
2017-10-19T20:07:24.460Z,12.80
2017-10-19T20:09:52.014Z,12.90
2017-10-19T20:12:19.777Z,12.80
2017-10-19T20:14:47.398Z,12.80
2017-10-19T20:17:14.977Z,12.80
2017-10-19T20:19:43.331Z,12.70
2017-10-19T20:22:10.935Z,12.70
2017-10-19T20:24:38.653Z,12.60
2017-10-19T20:27:07.470Z,12.60
2017-10-19T20:29:35.731Z,12.50
2017-10-19T20:32:04.001Z,12.60
2017-10-19T20:34:32.567Z,12.50
2017-10-19T20:37:00.938Z,12.60
2017-10-19T20:39:28.482Z,12.40
2017-10-19T20:41:55.978Z,12.30
2017-10-19T20:44:24.243Z,12.30
2017-10-19T20:46:51.786Z,12.20
2017-10-19T20:49:19.287Z,12.30
2017-10-19T20:51:47.571Z,12.20
2017-10-19T20:54:15.866Z,12.10
2017-10-19T20:56:43.367Z,12.10
2017-10-19T20:59:10.902Z,12.10
2017-10-19T21:01:38.409Z,12.00
2017-10-19T21:04:06.679Z,12.00
2017-10-19T21:06:34.185Z,11.90
2017-10-19T21:09:01.703Z,11.80
2017-10-19T21:11:29.199Z,11.90
2017-10-19T21:13:56.710Z,11.90
2017-10-19T21:16:24.218Z,11.90
2017-10-19T21:18:51.719Z,11.90
2017-10-19T21:21:19.225Z,11.90
2017-10-19T21:23:46.750Z,11.80
2017-10-19T21:26:14.255Z,11.80
2017-10-19T21:28:41.762Z,11.60
2017-10-19T21:31:09.287Z,11.50
2017-10-19T21:33:36.791Z,11.50
2017-10-19T21:36:04.292Z,11.50
2017-10-19T21:38:31.819Z,11.40
2017-10-19T21:40:59.306Z,11.40
2017-10-19T21:43:26.802Z,11.30
2017-10-19T21:45:54.322Z,11.30
2017-10-19T21:48:21.829Z,11.20
2017-10-19T21:50:49.330Z,11.20
2017-10-19T21:53:16.856Z,11.20
2017-10-19T21:55:45.114Z,11.10
2017-10-19T21:58:13.374Z,11.10
2017-10-19T22:00:40.885Z,11.10
2017-10-19T22:03:09.161Z,11.10
2017-10-19T22:05:36.684Z,11.00
2017-10-19T22:08:04.202Z,11.10
2017-10-19T22:10:31.714Z,11.10
2017-10-19T22:12:59.221Z,11.10
2017-10-19T22:15:27.506Z,11.00
2017-10-19T22:17:55.015Z,11.00
2017-10-19T22:20:22.545Z,11.00
2017-10-19T22:22:50.058Z,11.00
2017-10-19T22:25:17.558Z,11.00
2017-10-19T22:27:45.078Z,11.00
2017-10-19T22:30:13.366Z,11.00
2017-10-19T22:32:40.889Z,10.90
2017-10-19T22:35:08.378Z,10.90
2017-10-19T22:37:36.658Z,10.90
2017-10-19T22:40:04.919Z,10.90
2017-10-19T22:42:32.414Z,10.80
2017-10-19T22:44:59.927Z,10.90
2017-10-19T22:47:27.427Z,10.80
2017-10-19T22:49:54.950Z,10.70
2017-10-19T22:52:22.441Z,10.70
2017-10-19T22:54:51.318Z,10.70
2017-10-19T22:57:19.602Z,10.70
2017-10-19T22:59:47.872Z,10.70
2017-10-19T23:02:16.154Z,10.60
2017-10-19T23:04:44.434Z,10.60
2017-10-19T23:07:12.705Z,10.60
2017-10-19T23:09:40.966Z,10.50
2017-10-19T23:12:08.487Z,10.50
2017-10-19T23:14:35.975Z,10.50
2017-10-19T23:17:03.483Z,10.50
2017-10-19T23:19:30.994Z,10.50
2017-10-19T23:21:58.498Z,10.50
2017-10-19T23:24:26.003Z,10.50
2017-10-19T23:26:53.512Z,10.50
2017-10-19T23:29:21.011Z,10.40
2017-10-19T23:31:48.503Z,10.40
2017-10-19T23:34:16.012Z,10.40
2017-10-19T23:36:43.512Z,10.30
2017-10-19T23:39:11.025Z,10.20
2017-10-19T23:41:38.520Z,10.10
2017-10-19T23:44:06.788Z,10.00
2017-10-19T23:46:34.298Z,9.90
2017-10-19T23:49:02.597Z,9.90
2017-10-19T23:51:30.092Z,9.90
2017-10-19T23:53:57.602Z,9.80
2017-10-19T23:56:25.086Z,9.90
2017-10-19T23:58:52.576Z,9.90
